Sunday, November 19, 2017, 9:10 AM EST
Back to Local

KGFL, Floyd Bennett Memorial Airport

Location: Queensbury, NY, United States Lat: 43.333
Local Time: 9:10 AM EST (14:10 GMT) Lon: -73.617
Time Zone: US/Eastern Elev: 328 ft

Show me the last for .
Show Decoded

2017-11-19 08:53 METAR KGFL 191353Z AUTO 24010G24KT 10SM FEW024 BKN065 OVC080 07/04 A2915 RMK AO2
                 PK WND 23026/1339 RAE03 PRESRR SLP876 P0000 T00670039 =
2017-11-19 08:09 METAR KGFL 191309Z AUTO 25014G22KT 10SM SCT012 SCT026 OVC043 10/08 A2909 RMK AO2
                 RAE03 P0000 T01000078 =
2017-11-19 07:53 METAR KGFL 191253Z AUTO 23009G16KT 3SM -RA BR BKN012 OVC030 09/09 A2908 RMK AO2
                 RAB01E18B30 SLP852 P0002 T00940094 =
2017-11-19 07:44 METAR KGFL 191244Z AUTO 26008KT 1 3/4SM RA BR OVC013 09/09 A2907 RMK AO2
                 RAB01E18B30 P0002 T00890089 =
2017-11-19 07:29 METAR KGFL 191229Z AUTO 22004KT 4SM BR BKN013 BKN037 OVC046 09/08 A2905 RMK AO2
                 RAB01E18 P0000 T00890083 =
2017-11-19 07:19 METAR KGFL 191219Z AUTO 21004KT 5SM BR SCT013 BKN037 OVC046 08/08 A2906 RMK AO2
                 RAB01E18 P0000 T00830083 =
2017-11-19 06:53 METAR KGFL 191153Z AUTO 20004KT 3SM BR FEW007 OVC013 07/07 A2906 RMK AO2
                 RAE04B16E50 SLP847 P0000 60004 70019 T00720072 10072 20028 56025 =
2017-11-19 06:46 METAR KGFL 191146Z AUTO 00000KT 3SM -RA BR SCT007 OVC013 07/07 A2906 RMK AO2
                 RAE04B16 P0000 T00670067 =
2017-11-19 06:35 METAR KGFL 191135Z AUTO VRB03KT 3SM -RA BR BKN007 OVC011 06/06 A2907 RMK AO2
                 RAE04B16 P0000 T00610061 =
2017-11-19 06:28 METAR KGFL 191128Z AUTO 00000KT 2 1/2SM -RA BR BKN007 OVC011 06/06 A2907 RMK AO2
                 RAE04B16 CIG 005V010 P0000 T00610061 =
2017-11-19 06:10 METAR KGFL 191110Z AUTO 00000KT 2 1/2SM BR FEW007 OVC011 06/06 A2907 RMK AO2
                 RAE04 P0000 T00610061 =
2017-11-19 05:53 METAR KGFL 191053Z AUTO 00000KT 2SM -RA BR OVC012 06/06 A2908 RMK AO2 SLP851
                 P0001 T00610061 =
2017-11-19 05:42 METAR KGFL 191042Z AUTO 00000KT 2 1/2SM -RA BR OVC012 06/05 A2908 RMK AO2 PRESFR
                 P0001 T00560050 =
2017-11-19 05:33 METAR KGFL 191033Z AUTO 00000KT 1 3/4SM -RA BR OVC012 05/05 A2909 RMK AO2 P0001
                 T00500050 =
2017-11-19 04:53 METAR KGFL 190953Z AUTO 32003KT 2SM -RA BR OVC014 04/04 A2911 RMK AO2
                 RAE01B19E34B53 SLP864 P0000 T00440044 =
2017-11-19 04:43 METAR KGFL 190943Z AUTO 00000KT 2SM BR OVC014 05/05 A2911 RMK AO2 RAE01B19E34
                 P0000 T00500050 =
2017-11-19 04:34 METAR KGFL 190934Z AUTO 32003KT 3SM BR OVC014 04/04 A2912 RMK AO2 RAE01B19E34
                 P0000 T00440044 =
2017-11-19 03:53 METAR KGFL 190853Z AUTO 00000KT 2 1/2SM -RA BR FEW003 OVC014 04/04 A2914 RMK AO2
                 RAE0758B47 SLP874 P0000 60003 T00440044 56052 =
2017-11-19 03:25 METAR KGFL 190825Z AUTO 00000KT 2SM BR SCT003 OVC011 03/03 A2916 RMK AO2 RAE0758
                 CIG 008V013 P0000 T00330033 =
2017-11-19 03:16 METAR KGFL 190816Z AUTO 00000KT 1 3/4SM BR BKN003 OVC010 03/03 A2917 RMK AO2
                 RAE0758 P0000 T00330033 =
2017-11-19 02:53 METAR KGFL 190753Z AUTO 35003KT 1 1/2SM -RA BR SCT005 OVC010 04/04 A2918 RMK AO2
                 PRESFR SLP887 P0003 T00390039 =
2017-11-19 02:46 METAR KGFL 190746Z AUTO 00000KT 1 1/4SM -RA BR SCT005 OVC010 03/03 A2919 RMK AO2
                 CIG 007V014 PRESFR P0003 T00330033 =
2017-11-19 02:17 METAR KGFL 190717Z AUTO 00000KT 1 1/4SM -RA BR OVC003 03/03 A2923 RMK AO2 P0002
                 T00280028 =
2017-11-19 01:53 METAR KGFL 190653Z AUTO 31003KT 1 1/2SM -RA BR OVC002 03/03 A2924 RMK AO2 SLP909
                 P0000 T00330033 =
2017-11-19 00:53 METAR KGFL 190553Z AUTO 00000KT 1 3/4SM -RA BR OVC003 03/03 A2929 RMK AO2 SLP926
                 P0005 60015 I6000 T00280028 10028 20006 56042 =
2017-11-19 00:16 METAR KGFL 190516Z AUTO 00000KT 1 1/4SM -RA BR BKN004 OVC016 02/02 A2932 RMK AO2
                 P0002 T00220022 =
2017-11-19 00:08 METAR KGFL 190508Z AUTO 00000KT 1 1/4SM -RA BR SCT004 OVC016 02/02 A2933 RMK AO2
                 P0001 T00220022 =
2017-11-19 00:02 METAR KGFL 190502Z AUTO 00000KT 1 3/4SM -RA BR BKN004 BKN011 OVC016 02/02 A2933
                 RMK AO2 P0000 T00220022 =
2017-11-18 23:53 METAR KGFL 190453Z AUTO 00000KT 2SM -RA BR BKN004 OVC011 02/02 A2933 RMK AO2
                 SLP940 P0005 T00220022 400221094 =
2017-11-18 23:07 METAR KGFL 190407Z AUTO 00000KT 1 3/4SM -RA BR OVC004 02/02 A2936 RMK AO2 P0000
                 T00220022 =
2017-11-18 22:53 METAR KGFL 190353Z AUTO 00000KT 2 1/2SM -RA BR OVC004 02/02 A2937 RMK AO2 SLP953
                 P0001 T00220022 =
2017-11-18 22:44 METAR KGFL 190344Z AUTO 00000KT 2SM -RA BR OVC004 02/02 A2938 RMK AO2 P0001
                 T00220022 =
2017-11-18 22:40 METAR KGFL 190340Z AUTO 00000KT 1 3/4SM -RA BR OVC005 02/02 A2938 RMK AO2 P0001
                 T00220022 =
2017-11-18 22:21 METAR KGFL 190321Z AUTO 35003KT 2 1/2SM -RA BR OVC005 02/02 A2940 RMK AO2 P0001
                 T00170017 =
2017-11-18 22:07 METAR KGFL 190307Z AUTO 00000KT 1 3/4SM -RA BR BKN006 OVC011 02/02 A2941 RMK AO2
                 CIG 005V009 P0000 T00170017 =
2017-11-18 21:53 METAR KGFL 190253Z AUTO 00000KT 2 1/2SM -RA BR FEW007 OVC013 01/01 A2942 RMK AO2
                 SLP969 P0002 60004 I3000 T00110011 58039 =
2017-11-18 21:16 METAR KGFL 190216Z AUTO 00000KT 4SM -RA BR OVC013 01/01 A2944 RMK AO2 P0001
                 T00110011 =
2017-11-18 21:02 METAR KGFL 190202Z AUTO 00000KT 2 1/2SM -RA BR OVC014 01/01 A2946 RMK AO2 P0001
                 T00110006 =
2017-11-18 20:53 METAR KGFL 190153Z AUTO 00000KT 3SM -RA BR OVC014 01/01 A2946 RMK AO2 SLP986
                 P0000 T00060006 =
2017-11-18 20:24 METAR KGFL 190124Z AUTO 00000KT 6SM -RA BR OVC013 01/01 A2948 RMK AO2 P0000
                 T00110006 =
2017-11-18 19:53 METAR KGFL 190053Z AUTO 00000KT 9SM -RA OVC019 01/M01 A2950 RMK AO2 RAB01 SLP998
                 P0002 I1000 T00061006 =
2017-11-18 18:53 METAR KGFL 182353Z AUTO 00000KT 10SM OVC024 01/M03 A2953 RMK AO2 SLP010
                 T00111028 10022 20011 58024 =
2017-11-18 18:30 METAR KGFL 182330Z AUTO 00000KT 10SM BKN025 OVC035 01/M03 A2954 RMK AO2
                 T00111028 =
2017-11-18 17:53 METAR KGFL 182253Z AUTO 00000KT 10SM OVC036 01/M03 A2957 RMK AO2 SLP024
                 T00111033 =
2017-11-18 16:53 METAR KGFL 182153Z AUTO 06003KT 10SM OVC037 01/M03 A2958 RMK AO2 SLP026
                 T00111033 =
2017-11-18 15:53 METAR KGFL 182053Z AUTO 00000KT 10SM OVC039 01/M03 A2961 RMK AO2 SLP035
                 T00111033 56035 =
2017-11-18 14:53 METAR KGFL 181953Z AUTO 14003KT 10SM OVC047 01/M03 A2964 RMK AO2 SLP045
                 T00111033 =
2017-11-18 13:53 METAR KGFL 181853Z AUTO 00000KT 10SM BKN080 02/M04 A2967 RMK AO2 SLP056
                 T00171039 =
2017-11-18 12:53 METAR KGFL 181753Z AUTO 23004KT 10SM OVC095 01/M05 A2971 RMK AO2 SLP071 60000
                 T00111050 10011 21078 56047 =
2017-11-18 11:53 METAR KGFL 181653Z AUTO 00000KT 10SM SCT075 BKN090 OVC110 M01/M05 A2976 RMK AO2
                 UPB36E48 SLP086 P0000 T10061050 =
2017-11-18 10:53 METAR KGFL 181553Z AUTO 00000KT 10SM SCT120 M02/M05 A2979 RMK AO2 PRESFR SLP097
                 T10171050 =
2017-11-18 09:53 METAR KGFL 181453Z AUTO 00000KT 10SM CLR M03/M05 A2985 RMK AO2 SLP118 T10281050
                 58024 =

Support USWX by starting your Amazon purchase here.